createdAt,value
2023-04-18T00:02:06.995Z,102433.69
2023-04-18T00:04:35.867Z,102428.63
2023-04-18T00:07:04.413Z,102432.56
2023-04-18T00:09:32.850Z,102421.69
2023-04-18T00:12:02.102Z,102427.56
2023-04-18T00:14:30.712Z,102421.25
2023-04-18T00:16:59.194Z,102426.22
2023-04-18T00:19:27.815Z,102413.06
2023-04-18T00:21:58.040Z,102423.34
2023-04-18T00:24:26.503Z,102422.00
2023-04-18T00:26:55.042Z,102420.63
2023-04-18T00:29:23.431Z,102428.97
2023-04-18T00:31:51.824Z,102417.81
2023-04-18T00:34:20.398Z,102423.47
2023-04-18T00:36:48.739Z,102419.47
2023-04-18T00:39:17.143Z,102421.41
2023-04-18T00:41:45.521Z,102417.63
2023-04-18T00:44:14.149Z,102425.47
2023-04-18T00:46:42.909Z,102420.94
2023-04-18T00:49:11.808Z,102427.69
2023-04-18T00:51:40.797Z,102420.66
2023-04-18T00:54:11.254Z,102418.88
2023-04-18T00:56:39.819Z,102420.25
2023-04-18T00:59:09.875Z,102416.41
2023-04-18T01:01:40.289Z,102422.13
2023-04-18T01:04:09.377Z,102414.44
2023-04-18T01:06:38.076Z,102404.94
2023-04-18T01:09:06.660Z,102415.28
2023-04-18T01:11:35.998Z,102424.00
2023-04-18T01:14:06.509Z,102416.28
2023-04-18T01:16:35.024Z,102426.53
2023-04-18T01:19:04.862Z,102410.06
2023-04-18T01:21:37.326Z,102407.13
2023-04-18T01:24:12.278Z,102408.06
2023-04-18T01:26:43.641Z,102408.22
2023-04-18T01:29:12.223Z,102409.34
2023-04-18T01:31:41.148Z,102399.59
2023-04-18T01:34:09.786Z,102400.31
2023-04-18T01:36:39.063Z,102395.59
2023-04-18T01:39:07.566Z,102388.78
2023-04-18T01:41:36.584Z,102394.88
2023-04-18T01:44:05.352Z,102394.16
2023-04-18T01:46:34.193Z,102393.28
2023-04-18T01:49:02.732Z,102392.97
2023-04-18T01:51:31.602Z,102391.13
2023-04-18T01:54:00.157Z,102387.25
2023-04-18T01:56:28.556Z,102383.00
2023-04-18T01:58:57.188Z,102381.78
2023-04-18T02:01:25.712Z,102381.63
2023-04-18T02:03:54.514Z,102380.09
2023-04-18T02:06:23.114Z,102383.31
2023-04-18T02:08:51.521Z,102386.56
2023-04-18T02:11:19.998Z,102378.41
2023-04-18T02:13:48.628Z,102389.06
2023-04-18T02:16:17.068Z,102380.41
2023-04-18T02:18:45.820Z,102384.56
2023-04-18T02:21:14.205Z,102376.41
2023-04-18T02:23:42.693Z,102376.72
2023-04-18T02:26:11.305Z,102377.28
2023-04-18T02:28:39.756Z,102368.06
2023-04-18T02:31:14.330Z,102367.59
2023-04-18T02:33:43.869Z,102380.97
2023-04-18T02:36:12.989Z,102380.19
2023-04-18T02:38:41.477Z,102384.47
2023-04-18T02:41:14.898Z,102382.16
2023-04-18T02:43:43.597Z,102380.78
2023-04-18T02:46:12.433Z,102379.53
2023-04-18T02:48:41.049Z,102377.75
2023-04-18T02:51:09.710Z,102383.53
2023-04-18T02:53:38.174Z,102378.75
2023-04-18T02:56:07.208Z,102377.09
2023-04-18T02:58:36.439Z,102377.75
2023-04-18T03:01:05.035Z,102376.06
2023-04-18T03:03:33.612Z,102368.75
2023-04-18T03:06:02.088Z,102378.59
2023-04-18T03:08:30.628Z,102379.09
2023-04-18T03:10:59.138Z,102374.88
2023-04-18T03:13:27.657Z,102374.44
2023-04-18T03:15:56.358Z,102369.28
2023-04-18T03:18:25.001Z,102370.41
2023-04-18T03:20:53.408Z,102375.03
2023-04-18T03:23:22.029Z,102370.94
2023-04-18T03:25:50.544Z,102379.75
2023-04-18T03:28:19.045Z,102381.72
2023-04-18T03:30:47.673Z,102371.47
2023-04-18T03:33:17.166Z,102385.19
2023-04-18T03:35:45.678Z,102368.69
2023-04-18T03:38:14.141Z,102374.91
2023-04-18T03:40:44.462Z,102378.09
2023-04-18T03:43:12.855Z,102371.97
2023-04-18T03:45:41.244Z,102380.13
2023-04-18T03:48:09.734Z,102384.00
2023-04-18T03:50:38.225Z,102376.63
2023-04-18T03:53:06.745Z,102378.41
2023-04-18T03:55:35.497Z,102390.63
2023-04-18T03:58:04.087Z,102375.72
2023-04-18T04:00:32.522Z,102388.81
2023-04-18T04:03:01.824Z,102377.66
2023-04-18T04:05:30.716Z,102378.78
2023-04-18T04:07:59.275Z,102373.38
2023-04-18T04:10:27.748Z,102369.59
2023-04-18T04:12:56.399Z,102374.84
2023-04-18T04:15:24.906Z,102376.31
2023-04-18T04:17:53.673Z,102381.44
2023-04-18T04:20:25.751Z,102375.56
2023-04-18T04:22:55.209Z,102380.31
2023-04-18T04:25:28.441Z,102379.38
2023-04-18T04:27:56.933Z,102385.22
2023-04-18T04:30:25.419Z,102373.16
2023-04-18T04:32:55.059Z,102384.31
2023-04-18T04:35:23.612Z,102379.44
2023-04-18T04:37:53.152Z,102376.16
2023-04-18T04:40:23.018Z,102377.53
2023-04-18T04:42:54.155Z,102372.84
2023-04-18T04:45:24.076Z,102385.78
2023-04-18T04:47:52.713Z,102386.38
2023-04-18T04:50:21.268Z,102377.09
2023-04-18T04:52:49.883Z,102390.97
2023-04-18T04:55:18.998Z,102387.16
2023-04-18T04:57:47.720Z,102382.41
2023-04-18T05:00:20.801Z,102391.69
2023-04-18T05:02:49.766Z,102392.75
2023-04-18T05:05:18.796Z,102385.09
2023-04-18T05:07:47.393Z,102384.91
2023-04-18T05:10:15.877Z,102398.19
2023-04-18T05:12:44.589Z,102395.16
2023-04-18T05:15:15.225Z,102385.03
2023-04-18T05:17:43.741Z,102398.16
2023-04-18T05:20:13.348Z,102393.69
2023-04-18T05:22:41.814Z,102398.00
2023-04-18T05:25:10.357Z,102406.09
2023-04-18T05:27:38.945Z,102412.69
2023-04-18T05:30:07.984Z,102413.31
2023-04-18T05:32:39.014Z,102412.41
2023-04-18T05:35:08.125Z,102417.38
2023-04-18T05:37:36.795Z,102417.72
2023-04-18T05:40:06.755Z,102415.34
2023-04-18T05:42:35.239Z,102408.66
2023-04-18T05:45:03.933Z,102413.81
2023-04-18T05:47:33.474Z,102430.25
2023-04-18T05:50:02.015Z,102427.09
2023-04-18T05:52:31.191Z,102425.22
2023-04-18T05:54:59.683Z,102432.31
2023-04-18T05:57:28.135Z,102438.56
2023-04-18T05:59:56.608Z,102439.97
2023-04-18T06:02:25.745Z,102448.31
2023-04-18T06:04:54.609Z,102437.97
2023-04-18T06:07:25.337Z,102444.34
2023-04-18T06:09:54.094Z,102440.75
2023-04-18T06:12:22.568Z,102440.03
2023-04-18T06:14:51.171Z,102440.19
2023-04-18T06:17:19.702Z,102436.50
2023-04-18T06:19:48.134Z,102450.66
2023-04-18T06:22:16.678Z,102445.81
2023-04-18T06:24:45.133Z,102446.41
2023-04-18T06:27:27.999Z,102447.00
2023-04-18T06:29:59.198Z,102459.50
2023-04-18T06:32:28.085Z,102447.53
2023-04-18T06:34:56.652Z,102454.72
2023-04-18T06:37:25.212Z,102454.88
2023-04-18T06:39:53.750Z,102454.81
2023-04-18T06:42:22.773Z,102461.56
2023-04-18T06:44:51.449Z,102455.38
2023-04-18T06:47:20.039Z,102468.91
2023-04-18T06:49:48.626Z,102460.44
2023-04-18T06:52:18.181Z,102451.66
2023-04-18T06:54:46.653Z,102454.50
2023-04-18T06:57:15.889Z,102464.50
2023-04-18T06:59:44.376Z,102471.22
2023-04-18T07:02:13.174Z,102463.19
2023-04-18T07:04:41.673Z,102464.00
2023-04-18T07:07:10.170Z,102478.78
2023-04-18T07:09:38.682Z,102465.53
2023-04-18T07:12:07.974Z,102466.56
2023-04-18T07:14:36.360Z,102471.28
2023-04-18T07:17:05.146Z,102472.50
2023-04-18T07:19:33.909Z,102469.56
2023-04-18T07:22:02.401Z,102471.88
2023-04-18T07:24:30.960Z,102469.00
2023-04-18T07:26:59.449Z,102469.59
2023-04-18T07:29:28.009Z,102472.56
2023-04-18T07:31:56.503Z,102472.06
2023-04-18T07:34:27.298Z,102482.56
2023-04-18T07:36:57.270Z,102475.22
2023-04-18T07:39:25.768Z,102481.50
2023-04-18T07:41:54.474Z,102484.72
2023-04-18T07:44:25.177Z,102490.38
2023-04-18T07:46:53.563Z,102486.34
2023-04-18T07:49:21.968Z,102483.53
2023-04-18T07:51:50.449Z,102492.94
2023-04-18T07:54:18.972Z,102492.31
2023-04-18T07:56:47.430Z,102503.19
2023-04-18T07:59:16.082Z,102503.31
2023-04-18T08:01:44.716Z,102504.03
2023-04-18T08:04:14.642Z,102497.03
2023-04-18T08:06:43.425Z,102504.03
2023-04-18T08:09:12.457Z,102497.59
2023-04-18T08:11:42.592Z,102502.69
2023-04-18T08:14:11.540Z,102499.28
2023-04-18T08:16:40.211Z,102507.03
2023-04-18T08:19:08.732Z,102502.91
2023-04-18T08:21:37.247Z,102492.94
2023-04-18T08:24:06.146Z,102501.16
2023-04-18T08:26:34.660Z,102501.66
2023-04-18T08:29:03.299Z,102504.59
2023-04-18T08:31:31.804Z,102495.44
2023-04-18T08:34:00.795Z,102505.22
2023-04-18T08:36:31.515Z,102498.63
2023-04-18T08:39:00.015Z,102496.66
2023-04-18T08:41:34.169Z,102502.44
2023-04-18T08:44:02.789Z,102498.78
2023-04-18T08:46:37.228Z,102501.88
2023-04-18T08:49:06.348Z,102491.47
2023-04-18T08:51:36.392Z,102495.22
2023-04-18T08:54:06.326Z,102504.22
2023-04-18T08:56:37.426Z,102492.78
2023-04-18T08:59:05.921Z,102479.47
2023-04-18T09:02:09.006Z,102491.97
2023-04-18T09:04:37.714Z,102486.78
2023-04-18T09:07:11.000Z,102478.16
2023-04-18T09:09:44.195Z,102475.81
2023-04-18T09:12:26.823Z,102484.00
2023-04-18T09:15:00.394Z,102481.19
2023-04-18T09:17:38.074Z,102479.78
2023-04-18T09:20:09.921Z,102478.56
2023-04-18T09:22:48.616Z,102492.84
2023-04-18T09:25:44.971Z,102489.72
2023-04-18T09:28:31.862Z,102485.09
2023-04-18T09:31:11.898Z,102487.09
2023-04-18T09:33:52.767Z,102486.06
2023-04-18T09:36:22.410Z,102483.94
2023-04-18T09:38:55.326Z,102487.63
2023-04-18T09:41:24.996Z,102491.75
2023-04-18T09:44:12.321Z,102477.63
2023-04-18T09:46:46.085Z,102486.13
2023-04-18T09:49:16.895Z,102487.84
2023-04-18T09:51:46.282Z,102477.00
2023-04-18T09:54:16.595Z,102469.09
2023-04-18T09:56:47.465Z,102476.03
2023-04-18T09:59:23.966Z,102474.63
2023-04-18T10:01:53.121Z,102476.59
2023-04-18T10:04:22.272Z,102478.81
2023-04-18T10:06:51.202Z,102473.63
2023-04-18T10:09:22.060Z,102487.44
2023-04-18T10:11:50.504Z,102488.66
2023-04-18T10:14:19.771Z,102485.72
2023-04-18T10:16:49.272Z,102488.53
2023-04-18T10:19:27.376Z,102491.16
2023-04-18T10:21:57.801Z,102500.00
2023-04-18T10:24:45.240Z,102503.09
2023-04-18T10:27:13.855Z,102488.03
2023-04-18T10:29:54.338Z,102495.50
2023-04-18T10:32:23.494Z,102501.97
2023-04-18T10:34:55.406Z,102489.34
2023-04-18T10:37:26.704Z,102484.00
2023-04-18T10:40:08.019Z,102483.72
2023-04-18T10:42:59.868Z,102484.06
2023-04-18T10:45:30.953Z,102487.94
2023-04-18T10:48:22.992Z,102479.44
2023-04-18T10:51:26.840Z,102480.16
2023-04-18T10:53:59.486Z,102488.53
2023-04-18T10:56:29.100Z,102473.88
2023-04-18T10:59:01.816Z,102491.34
2023-04-18T11:01:33.052Z,102490.81
2023-04-18T11:04:01.982Z,102478.75
2023-04-18T11:06:31.332Z,102471.28
2023-04-18T11:09:13.618Z,102479.31
2023-04-18T11:11:43.369Z,102477.63
2023-04-18T11:14:12.002Z,102480.16
2023-04-18T11:16:40.833Z,102471.25
2023-04-18T11:19:23.236Z,102490.56
2023-04-18T11:21:51.747Z,102470.28
2023-04-18T11:24:22.758Z,102482.34
2023-04-18T11:26:55.934Z,102479.47
2023-04-18T11:29:24.712Z,102473.00
2023-04-18T11:31:56.596Z,102460.63
2023-04-18T11:34:31.369Z,102475.31
2023-04-18T11:37:00.317Z,102459.13
2023-04-18T11:39:28.803Z,102466.03
2023-04-18T11:41:59.202Z,102464.53
2023-04-18T11:44:27.771Z,102479.94
2023-04-18T11:46:56.208Z,102465.25
2023-04-18T11:49:33.763Z,102467.78
2023-04-18T11:52:11.265Z,102471.94
2023-04-18T11:54:44.933Z,102468.28
2023-04-18T11:57:21.016Z,102472.91
2023-04-18T11:59:57.773Z,102470.91
2023-04-18T12:02:28.310Z,102468.91
2023-04-18T12:05:00.355Z,102466.63
2023-04-18T12:07:36.508Z,102472.22
2023-04-18T12:10:07.460Z,102465.84
2023-04-18T12:12:36.358Z,102462.78
2023-04-18T12:15:13.815Z,102471.50
2023-04-18T12:17:48.619Z,102460.69
2023-04-18T12:20:18.470Z,102465.63
2023-04-18T12:22:51.467Z,102485.72
2023-04-18T12:25:27.364Z,102464.09
2023-04-18T12:28:01.125Z,102471.16
2023-04-18T12:30:31.833Z,102466.28
2023-04-18T12:33:04.450Z,102474.75
2023-04-18T12:35:32.980Z,102464.97
2023-04-18T12:38:02.869Z,102457.16
2023-04-18T12:40:31.404Z,102468.63
2023-04-18T12:43:01.470Z,102469.69
2023-04-18T12:45:31.667Z,102447.66
2023-04-18T12:48:00.324Z,102463.47
2023-04-18T12:50:28.914Z,102459.38
2023-04-18T12:52:59.562Z,102463.16
2023-04-18T12:55:28.912Z,102460.19
2023-04-18T12:57:58.201Z,102455.13
2023-04-18T13:00:29.626Z,102458.63
2023-04-18T13:02:59.208Z,102467.84
2023-04-18T13:05:32.460Z,102453.25
2023-04-18T13:10:33.302Z,102463.59
2023-04-18T13:13:01.771Z,102451.78
2023-04-18T13:15:30.254Z,102457.63
2023-04-18T13:18:04.694Z,102450.81
2023-04-18T13:20:34.363Z,102450.53
2023-04-18T13:23:02.915Z,102455.78
2023-04-18T13:25:31.593Z,102454.53
2023-04-18T13:28:00.769Z,102449.84
2023-04-18T13:30:29.676Z,102457.53
2023-04-18T13:32:58.416Z,102456.06
2023-04-18T13:35:26.941Z,102453.75
2023-04-18T13:37:55.990Z,102473.38
2023-04-18T13:40:25.220Z,102453.41
2023-04-18T13:42:53.891Z,102460.59
2023-04-18T13:45:22.356Z,102458.06
2023-04-18T13:47:50.922Z,102440.53
2023-04-18T13:50:20.292Z,102444.69
2023-04-18T13:52:49.397Z,102444.91
2023-04-18T13:55:18.698Z,102437.00
2023-04-18T13:57:48.212Z,102441.34
2023-04-18T14:00:17.461Z,102437.13
2023-04-18T14:02:46.050Z,102449.25
2023-04-18T14:05:14.762Z,102436.03
2023-04-18T14:07:43.547Z,102432.59
2023-04-18T14:10:12.029Z,102427.31
2023-04-18T14:12:40.547Z,102432.47
2023-04-18T14:15:09.632Z,102440.88
2023-04-18T14:17:38.210Z,102428.00
2023-04-18T14:20:07.761Z,102430.63
2023-04-18T14:22:36.337Z,102430.88
2023-04-18T14:25:05.407Z,102432.91
2023-04-18T14:27:34.160Z,102433.72
2023-04-18T14:30:03.118Z,102426.81
2023-04-18T14:32:31.626Z,102428.88
2023-04-18T14:35:00.265Z,102427.53
2023-04-18T14:37:28.765Z,102434.44
2023-04-18T14:39:57.286Z,102435.88
2023-04-18T14:42:25.746Z,102426.94
2023-04-18T14:44:54.484Z,102431.22
2023-04-18T14:47:24.283Z,102425.91
2023-04-18T14:49:52.843Z,102429.97
2023-04-18T14:52:21.249Z,102431.50
2023-04-18T14:54:49.650Z,102423.03
2023-04-18T14:57:18.445Z,102417.84
2023-04-18T14:59:46.869Z,102416.91
2023-04-18T15:02:15.664Z,102421.94
2023-04-18T15:04:44.341Z,102419.50
2023-04-18T15:07:12.874Z,102413.75
2023-04-18T15:09:41.352Z,102410.16
2023-04-18T15:12:09.894Z,102415.25
2023-04-18T15:14:38.431Z,102407.84
2023-04-18T15:17:06.873Z,102401.59
2023-04-18T15:19:35.415Z,102407.28
2023-04-18T15:22:03.841Z,102413.56
2023-04-18T15:24:32.339Z,102404.25
2023-04-18T15:27:01.440Z,102405.94
2023-04-18T15:29:29.929Z,102399.72
2023-04-18T15:31:58.374Z,102400.00
2023-04-18T15:34:26.946Z,102399.88
2023-04-18T15:36:55.526Z,102404.63
2023-04-18T15:39:24.143Z,102394.78
2023-04-18T15:41:56.466Z,102394.69
2023-04-18T15:44:25.172Z,102381.19
2023-04-18T15:46:53.591Z,102392.13
2023-04-18T15:49:21.980Z,102385.75
2023-04-18T15:51:50.416Z,102399.25
2023-04-18T15:54:18.890Z,102392.88
2023-04-18T15:56:47.259Z,102400.06
2023-04-18T15:59:15.681Z,102408.50
2023-04-18T16:01:46.015Z,102396.50
2023-04-18T16:04:15.338Z,102399.06
2023-04-18T16:06:44.009Z,102380.59
2023-04-18T16:09:12.454Z,102385.94
2023-04-18T16:11:40.871Z,102378.94
2023-04-18T16:14:09.404Z,102394.16
2023-04-18T16:16:37.785Z,102397.09
2023-04-18T16:19:06.358Z,102392.72
2023-04-18T16:21:34.962Z,102385.72
2023-04-18T16:24:03.572Z,102400.84
2023-04-18T16:26:32.138Z,102385.31
2023-04-18T16:29:00.667Z,102388.41
2023-04-18T16:31:29.234Z,102383.16
2023-04-18T16:33:57.780Z,102382.09
2023-04-18T16:36:26.513Z,102385.69
2023-04-18T16:38:54.903Z,102392.38
2023-04-18T16:41:23.293Z,102387.19
2023-04-18T16:43:51.779Z,102389.09
2023-04-18T16:46:20.238Z,102399.19
2023-04-18T16:48:51.056Z,102399.03
2023-04-18T16:51:21.041Z,102384.34
2023-04-18T16:53:49.819Z,102392.06
2023-04-18T16:56:18.232Z,102390.69
2023-04-18T16:58:46.851Z,102387.06
2023-04-18T17:01:15.575Z,102385.94
2023-04-18T17:03:44.496Z,102387.53
2023-04-18T17:06:13.099Z,102381.53
2023-04-18T17:08:41.495Z,102382.22
2023-04-18T17:11:09.936Z,102379.50
2023-04-18T17:13:38.453Z,102384.03
2023-04-18T17:16:07.397Z,102382.59
2023-04-18T17:18:35.930Z,102379.88
2023-04-18T17:21:05.288Z,102384.63
2023-04-18T17:23:33.820Z,102367.50
2023-04-18T17:26:02.251Z,102375.56
2023-04-18T17:28:30.738Z,102381.72
2023-04-18T17:31:01.465Z,102380.97
2023-04-18T17:33:30.562Z,102381.94
2023-04-18T17:35:59.109Z,102393.75
2023-04-18T17:38:27.606Z,102384.53
2023-04-18T17:41:00.371Z,102377.72
2023-04-18T17:43:29.191Z,102376.94
2023-04-18T17:45:59.611Z,102386.16
2023-04-18T17:48:28.063Z,102385.69
2023-04-18T17:50:56.650Z,102385.44
2023-04-18T17:53:25.198Z,102377.69
2023-04-18T17:55:55.240Z,102387.44
2023-04-18T17:58:23.654Z,102388.84
2023-04-18T18:00:53.519Z,102392.81
2023-04-18T18:03:22.379Z,102390.81
2023-04-18T18:05:51.906Z,102393.69
2023-04-18T18:08:21.641Z,102401.75
2023-04-18T18:10:50.226Z,102411.41
2023-04-18T18:13:18.735Z,102392.75
2023-04-18T18:15:47.308Z,102399.84
2023-04-18T18:18:15.871Z,102414.41
2023-04-18T18:20:44.454Z,102398.94
2023-04-18T18:23:12.833Z,102402.00
2023-04-18T18:25:41.578Z,102402.97
2023-04-18T18:28:10.153Z,102393.03
2023-04-18T18:30:38.765Z,102399.25
2023-04-18T18:33:07.273Z,102393.63
2023-04-18T18:35:36.444Z,102390.59
2023-04-18T18:38:04.940Z,102411.22
2023-04-18T18:40:33.432Z,102403.25
2023-04-18T18:43:01.976Z,102412.22
2023-04-18T18:45:30.427Z,102401.22
2023-04-18T18:47:58.954Z,102408.56
2023-04-18T18:50:27.624Z,102401.00
2023-04-18T18:52:56.119Z,102413.44
2023-04-18T18:55:24.598Z,102410.91
2023-04-18T18:57:54.069Z,102413.34
2023-04-18T19:00:22.696Z,102411.94
2023-04-18T19:02:51.371Z,102424.06
2023-04-18T19:05:19.989Z,102425.84
2023-04-18T19:07:49.179Z,102422.50
2023-04-18T19:10:17.796Z,102420.81
2023-04-18T19:12:46.320Z,102436.50
2023-04-18T19:15:14.893Z,102435.19
2023-04-18T19:17:43.407Z,102433.94
2023-04-18T19:20:11.868Z,102429.75
2023-04-18T19:22:40.588Z,102433.00
2023-04-18T19:25:09.678Z,102434.50
2023-04-18T19:27:38.194Z,102433.66
2023-04-18T19:30:07.434Z,102429.56
2023-04-18T19:32:35.987Z,102429.69
2023-04-18T19:35:05.757Z,102440.28
2023-04-18T19:37:34.179Z,102443.72
2023-04-18T19:40:02.801Z,102447.41
2023-04-18T19:42:31.693Z,102435.94
2023-04-18T19:45:00.468Z,102444.59
2023-04-18T19:47:32.183Z,102431.97
2023-04-18T19:50:01.400Z,102435.97
2023-04-18T19:52:29.796Z,102431.44
2023-04-18T19:54:58.207Z,102444.03
2023-04-18T19:57:28.818Z,102449.28
2023-04-18T19:59:57.279Z,102449.78
2023-04-18T20:02:25.954Z,102449.13
2023-04-18T20:04:54.661Z,102450.41
2023-04-18T20:07:24.217Z,102454.34
2023-04-18T20:09:54.928Z,102451.13
2023-04-18T20:12:23.676Z,102453.19
2023-04-18T20:14:52.501Z,102457.66
2023-04-18T20:17:21.241Z,102468.16
2023-04-18T20:19:51.051Z,102456.94
2023-04-18T20:22:19.851Z,102450.69
2023-04-18T20:24:49.134Z,102458.22
2023-04-18T20:27:20.440Z,102455.28
2023-04-18T20:29:49.099Z,102456.00
2023-04-18T20:32:17.608Z,102461.84
2023-04-18T20:34:46.702Z,102473.66
2023-04-18T20:37:18.679Z,102464.38
2023-04-18T20:39:47.556Z,102470.94
2023-04-18T20:42:17.540Z,102472.06
2023-04-18T20:44:46.722Z,102467.22
2023-04-18T20:47:15.948Z,102459.25
2023-04-18T20:49:44.595Z,102465.28
2023-04-18T20:52:14.524Z,102468.53
2023-04-18T20:54:43.074Z,102472.50
2023-04-18T20:57:11.618Z,102460.28
2023-04-18T20:59:40.258Z,102461.31
2023-04-18T21:02:08.978Z,102463.56
2023-04-18T21:04:37.698Z,102461.25
2023-04-18T21:07:06.361Z,102475.53
2023-04-18T21:09:36.723Z,102472.88
2023-04-18T21:12:05.673Z,102477.81
2023-04-18T21:14:34.166Z,102479.56
2023-04-18T21:17:02.781Z,102482.06
2023-04-18T21:19:31.383Z,102471.84
2023-04-18T21:21:59.794Z,102481.31
2023-04-18T21:24:28.247Z,102486.22
2023-04-18T21:26:57.728Z,102483.53
2023-04-18T21:29:26.190Z,102479.06
2023-04-18T21:31:54.839Z,102479.97
2023-04-18T21:34:23.393Z,102484.78
2023-04-18T21:36:51.898Z,102479.69
2023-04-18T21:39:20.335Z,102472.34
2023-04-18T21:41:48.763Z,102483.41
2023-04-18T21:44:18.868Z,102477.81
2023-04-18T21:46:47.276Z,102482.44
2023-04-18T21:49:15.934Z,102470.16
2023-04-18T21:51:44.981Z,102481.69
2023-04-18T21:54:13.861Z,102484.06
2023-04-18T21:56:43.095Z,102480.59
2023-04-18T21:59:11.582Z,102475.72
2023-04-18T22:01:40.061Z,102475.03
2023-04-18T22:04:09.017Z,102482.06
2023-04-18T22:06:37.820Z,102473.09
2023-04-18T22:09:06.406Z,102485.06
2023-04-18T22:11:34.792Z,102481.69
2023-04-18T22:14:03.318Z,102480.91
2023-04-18T22:16:33.319Z,102478.63
2023-04-18T22:19:01.898Z,102474.34
2023-04-18T22:21:31.310Z,102482.47
2023-04-18T22:23:59.748Z,102471.84
2023-04-18T22:26:28.313Z,102483.34
2023-04-18T22:28:56.768Z,102473.81
2023-04-18T22:31:25.428Z,102476.97
2023-04-18T22:33:54.040Z,102484.38
2023-04-18T22:36:22.607Z,102492.34
2023-04-18T22:38:51.029Z,102486.63
2023-04-18T22:41:19.559Z,102485.66
2023-04-18T22:43:49.073Z,102490.63
2023-04-18T22:46:17.530Z,102483.47
2023-04-18T22:48:46.231Z,102480.34
2023-04-18T22:51:14.805Z,102478.97
2023-04-18T22:53:43.545Z,102487.34
2023-04-18T22:56:12.001Z,102480.44
2023-04-18T22:58:40.470Z,102483.09
2023-04-18T23:01:08.865Z,102482.34
2023-04-18T23:03:37.359Z,102482.94
2023-04-18T23:06:08.802Z,102489.75
2023-04-18T23:08:37.296Z,102486.25
2023-04-18T23:11:05.914Z,102474.91
2023-04-18T23:13:34.417Z,102483.31
2023-04-18T23:16:02.872Z,102476.47
2023-04-18T23:18:31.379Z,102480.72
2023-04-18T23:21:00.260Z,102480.16
2023-04-18T23:23:28.764Z,102478.41
2023-04-18T23:25:57.497Z,102484.81
2023-04-18T23:28:26.209Z,102488.41
2023-04-18T23:30:54.587Z,102488.03
2023-04-18T23:33:23.004Z,102481.38
2023-04-18T23:35:51.462Z,102486.38
2023-04-18T23:38:20.020Z,102490.47
2023-04-18T23:40:48.493Z,102491.59
2023-04-18T23:43:16.934Z,102471.63
2023-04-18T23:45:45.474Z,102488.34
2023-04-18T23:48:13.946Z,102475.47
2023-04-18T23:50:47.313Z,102485.03
2023-04-18T23:53:19.539Z,102471.84
2023-04-18T23:55:50.593Z,102481.88
2023-04-18T23:58:19.429Z,102479.28
